createdAt,value
2022-09-15T00:01:13.843Z,101117.34
2022-09-15T00:03:43.603Z,101107.56
2022-09-15T00:06:14.821Z,101113.44
2022-09-15T00:08:44.414Z,101134.03
2022-09-15T00:11:18.441Z,101124.13
2022-09-15T00:13:48.483Z,101129.91
2022-09-15T00:16:21.060Z,101123.81
2022-09-15T00:18:50.433Z,101138.78
2022-09-15T00:21:25.032Z,101133.63
2022-09-15T00:23:54.990Z,101135.22
2022-09-15T00:26:27.517Z,101125.41
2022-09-15T00:28:57.827Z,101109.53
2022-09-15T00:31:32.727Z,101117.47
2022-09-15T00:34:04.193Z,101123.91
2022-09-15T00:36:33.683Z,101127.16
2022-09-15T00:39:02.929Z,101135.09
2022-09-15T00:41:32.886Z,101130.59
2022-09-15T00:44:04.269Z,101129.78
2022-09-15T00:46:38.198Z,101128.28
2022-09-15T00:49:15.387Z,101133.34
2022-09-15T00:51:54.065Z,101103.81
2022-09-15T00:54:28.274Z,101119.47
2022-09-15T00:57:01.141Z,101116.25
2022-09-15T00:59:35.118Z,101130.19
2022-09-15T01:02:13.729Z,101130.72
2022-09-15T01:04:43.154Z,101134.06
2022-09-15T01:07:18.003Z,101123.59
2022-09-15T01:09:54.513Z,101106.78
2022-09-15T01:12:25.407Z,101133.59
2022-09-15T01:14:54.683Z,101125.78
2022-09-15T01:17:39.355Z,101131.31
2022-09-15T01:20:55.558Z,101137.38
2022-09-15T01:24:35.766Z,101131.31
2022-09-15T01:27:41.690Z,101133.38
2022-09-15T01:30:16.662Z,101132.66
2022-09-15T01:33:22.519Z,101128.94
2022-09-15T01:36:00.347Z,101136.81
2022-09-15T01:38:55.810Z,101140.91
2022-09-15T01:41:31.588Z,101144.63
2022-09-15T01:44:07.713Z,101147.69
2022-09-15T01:46:47.184Z,101127.19
2022-09-15T01:49:21.293Z,101151.47
2022-09-15T01:51:54.852Z,101141.78
2022-09-15T01:54:30.886Z,101152.13
2022-09-15T01:57:00.364Z,101140.44
2022-09-15T01:59:29.939Z,101138.97
2022-09-15T02:02:05.895Z,101130.75
2022-09-15T02:04:41.937Z,101139.81
2022-09-15T02:07:17.255Z,101142.44
2022-09-15T02:09:52.396Z,101141.94
2022-09-15T02:12:33.215Z,101116.44
2022-09-15T02:15:08.777Z,101144.25
2022-09-15T02:17:47.287Z,101136.81
2022-09-15T02:20:23.865Z,101145.09
2022-09-15T02:23:02.188Z,101147.84
2022-09-15T02:25:36.082Z,101144.41
2022-09-15T02:28:11.195Z,101140.38
2022-09-15T02:30:44.200Z,101154.66
2022-09-15T02:33:20.775Z,101121.31
2022-09-15T02:35:51.950Z,101150.03
2022-09-15T02:38:21.822Z,101151.06
2022-09-15T02:40:51.155Z,101152.03
2022-09-15T02:43:20.263Z,101155.72
2022-09-15T02:45:49.750Z,101158.47
2022-09-15T02:48:20.556Z,101159.44
2022-09-15T02:50:49.724Z,101153.81
2022-09-15T02:53:18.915Z,101153.81
2022-09-15T02:55:47.997Z,101148.66
2022-09-15T02:58:17.173Z,101143.47
2022-09-15T03:00:46.365Z,101164.34
2022-09-15T03:03:15.562Z,101157.25
2022-09-15T03:05:46.087Z,101157.59
2022-09-15T03:08:15.275Z,101140.63
2022-09-15T03:10:44.443Z,101156.50
2022-09-15T03:13:13.606Z,101153.41
2022-09-15T03:15:43.251Z,101152.78
2022-09-15T03:18:13.267Z,101149.41
2022-09-15T03:20:42.433Z,101148.28
2022-09-15T03:23:13.108Z,101158.63
2022-09-15T03:25:42.232Z,101153.44
2022-09-15T03:28:11.315Z,101153.16
2022-09-15T03:30:40.660Z,101147.00
2022-09-15T03:33:09.740Z,101157.38
2022-09-15T03:35:39.471Z,101153.84
2022-09-15T03:38:08.624Z,101154.16
2022-09-15T03:40:39.226Z,101152.56
2022-09-15T03:43:08.402Z,101158.44
2022-09-15T03:45:38.025Z,101142.94
2022-09-15T03:48:08.764Z,101149.56
2022-09-15T03:50:37.892Z,101169.78
2022-09-15T03:53:07.122Z,101163.97
2022-09-15T03:55:36.329Z,101171.25
2022-09-15T03:58:06.822Z,101158.16
2022-09-15T04:00:36.221Z,101155.09
2022-09-15T04:03:06.875Z,101169.00
2022-09-15T04:05:36.798Z,101169.50
2022-09-15T04:08:06.602Z,101178.22
2022-09-15T04:10:39.006Z,101182.44
2022-09-15T04:13:09.829Z,101178.06
2022-09-15T04:15:38.985Z,101185.34
2022-09-15T04:18:08.187Z,101189.88
2022-09-15T04:20:40.759Z,101172.56
2022-09-15T04:23:09.878Z,101196.69
2022-09-15T04:25:39.003Z,101188.44
2022-09-15T04:28:09.544Z,101201.03
2022-09-15T04:30:38.790Z,101193.94
2022-09-15T04:33:08.363Z,101187.44
2022-09-15T04:35:37.653Z,101197.63
2022-09-15T04:38:06.787Z,101202.31
2022-09-15T04:40:35.950Z,101202.31
2022-09-15T04:43:06.680Z,101180.44
2022-09-15T04:45:37.220Z,101196.03
2022-09-15T04:48:06.468Z,101190.50
2022-09-15T04:50:35.666Z,101197.16
2022-09-15T04:53:04.953Z,101199.44
2022-09-15T04:55:34.286Z,101190.31
2022-09-15T04:58:04.134Z,101193.72
2022-09-15T05:00:43.672Z,101209.53
2022-09-15T05:03:14.253Z,101197.25
2022-09-15T05:05:43.530Z,101200.19
2022-09-15T05:08:12.627Z,101215.22
2022-09-15T05:10:41.741Z,101212.00
2022-09-15T05:13:10.839Z,101219.72
2022-09-15T05:15:41.530Z,101197.25
2022-09-15T05:18:10.789Z,101221.50
2022-09-15T05:20:40.078Z,101218.28
2022-09-15T05:23:09.329Z,101217.44
2022-09-15T05:25:38.853Z,101230.69
2022-09-15T05:28:08.657Z,101230.06
2022-09-15T05:30:44.547Z,101224.56
2022-09-15T05:33:13.992Z,101141.50
2022-09-15T05:35:52.690Z,101226.81
2022-09-15T05:38:22.174Z,101217.56
2022-09-15T05:40:51.826Z,101230.19
2022-09-15T05:43:21.556Z,101217.56
2022-09-15T05:45:57.531Z,101225.50
2022-09-15T05:48:27.303Z,101231.47
2022-09-15T05:50:58.327Z,101213.16
2022-09-15T05:53:28.403Z,101224.34
2022-09-15T05:55:58.605Z,101223.56
2022-09-15T05:58:28.621Z,101223.72
2022-09-15T06:01:05.329Z,101227.59
2022-09-15T06:03:35.432Z,101233.00
2022-09-15T06:06:06.490Z,101225.69
2022-09-15T06:08:40.516Z,101220.19
2022-09-15T06:11:16.279Z,101241.56
2022-09-15T06:13:46.890Z,101241.72
2022-09-15T06:16:20.644Z,101229.28
2022-09-15T06:18:52.311Z,101243.19
2022-09-15T06:21:24.353Z,101251.34
2022-09-15T06:23:56.450Z,101256.19
2022-09-15T06:26:26.842Z,101253.09
2022-09-15T06:28:58.502Z,101256.38
2022-09-15T06:31:32.995Z,101251.97
2022-09-15T06:34:04.130Z,101269.00
2022-09-15T06:36:34.105Z,101264.78
2022-09-15T06:39:03.623Z,101268.53
2022-09-15T06:41:58.332Z,101270.63
2022-09-15T06:44:22.376Z,101218.03
2022-09-15T06:46:52.912Z,101259.13
2022-09-15T06:49:22.902Z,101238.28
2022-09-15T06:51:52.620Z,101270.28
2022-09-15T06:54:22.535Z,101269.50
2022-09-15T06:56:53.097Z,101270.28
2022-09-15T06:59:24.390Z,101261.56
2022-09-15T07:01:56.200Z,101269.34
2022-09-15T07:04:25.358Z,101276.13
2022-09-15T07:06:54.576Z,101270.63
2022-09-15T07:09:23.831Z,101290.22
2022-09-15T07:11:52.946Z,101293.13
2022-09-15T07:14:22.241Z,101293.94
2022-09-15T07:16:51.448Z,101294.59
2022-09-15T07:19:21.985Z,101282.72
2022-09-15T07:21:52.897Z,101285.81
2022-09-15T07:24:22.136Z,101287.59
2022-09-15T07:26:52.119Z,101288.06
2022-09-15T07:29:21.304Z,101297.31
2022-09-15T07:31:50.813Z,101287.91
2022-09-15T07:34:21.360Z,101299.06
2022-09-15T07:36:50.882Z,101303.63
2022-09-15T07:39:20.067Z,101292.25
2022-09-15T07:41:49.188Z,101299.69
2022-09-15T07:44:18.383Z,101304.53
2022-09-15T07:46:47.508Z,101295.28
2022-09-15T07:49:17.682Z,101305.13
2022-09-15T07:51:48.296Z,101303.09
2022-09-15T07:54:21.985Z,101306.31
2022-09-15T07:56:52.128Z,101315.56
2022-09-15T07:59:21.308Z,101323.28
2022-09-15T08:01:51.323Z,101249.81
2022-09-15T08:04:20.489Z,101327.03
2022-09-15T08:06:52.760Z,101325.91
2022-09-15T08:09:22.080Z,101327.16
2022-09-15T08:11:51.188Z,101327.97
2022-09-15T08:14:20.364Z,101331.06
2022-09-15T08:16:49.629Z,101325.84
2022-09-15T08:19:19.743Z,101335.53
2022-09-15T08:21:50.652Z,101336.28
2022-09-15T08:24:19.737Z,101335.53
2022-09-15T08:26:48.868Z,101328.00
2022-09-15T08:29:18.804Z,101335.50
2022-09-15T08:31:48.753Z,101338.28
2022-09-15T08:34:19.194Z,101342.38
2022-09-15T08:36:48.305Z,101339.88
2022-09-15T08:39:18.961Z,101342.44
2022-09-15T08:41:51.682Z,101340.47
2022-09-15T08:44:33.389Z,101352.81
2022-09-15T08:47:11.416Z,101357.19
2022-09-15T08:49:57.431Z,101360.38
2022-09-15T08:52:34.681Z,101360.47
2022-09-15T08:55:14.719Z,101368.63
2022-09-15T08:57:45.028Z,101371.97
2022-09-15T09:00:18.043Z,101367.78
2022-09-15T09:03:14.658Z,101361.56
2022-09-15T09:06:00.033Z,101358.72
2022-09-15T09:09:13.491Z,101379.47
2022-09-15T09:11:58.066Z,101382.44
2022-09-15T09:14:40.944Z,101370.38
2022-09-15T09:17:25.186Z,101369.25
2022-09-15T09:20:33.471Z,101363.50
2022-09-15T09:23:08.901Z,101373.66
2022-09-15T09:25:38.853Z,101371.00
2022-09-15T09:28:25.463Z,101366.19
2022-09-15T09:30:56.155Z,101365.63
2022-09-15T09:33:32.292Z,101371.16
2022-09-15T09:36:02.533Z,101372.50
2022-09-15T09:38:39.118Z,101372.22
2022-09-15T09:41:14.894Z,101376.47
2022-09-15T09:43:47.688Z,101377.47
2022-09-15T09:46:20.387Z,101364.78
2022-09-15T09:48:56.433Z,101363.63
2022-09-15T09:51:35.997Z,101379.94
2022-09-15T09:54:28.329Z,101381.09
2022-09-15T09:57:19.154Z,101377.81
2022-09-15T09:59:51.092Z,101389.78
2022-09-15T10:02:22.942Z,101374.34
2022-09-15T10:04:54.272Z,101386.28
2022-09-15T10:07:27.242Z,101381.66
2022-09-15T10:09:59.528Z,101385.34
2022-09-15T10:12:33.285Z,101378.91
2022-09-15T10:15:08.123Z,101384.63
2022-09-15T10:17:44.077Z,101379.19
2022-09-15T10:20:28.567Z,101374.31
2022-09-15T10:23:07.173Z,101370.16
2022-09-15T10:28:29.177Z,101374.69
2022-09-15T10:31:05.460Z,101371.41
2022-09-15T10:33:36.937Z,101374.38
2022-09-15T10:36:13.034Z,101367.13
2022-09-15T10:38:46.725Z,101378.69
2022-09-15T10:41:29.199Z,101373.66
2022-09-15T10:44:31.073Z,101382.63
2022-09-15T10:47:14.005Z,101382.75
2022-09-15T10:50:01.482Z,101392.28
2022-09-15T10:52:43.626Z,101391.63
2022-09-15T10:55:51.124Z,101392.19
2022-09-15T10:58:41.070Z,101390.88
2022-09-15T11:01:41.285Z,101391.81
2022-09-15T11:05:10.399Z,101380.19
2022-09-15T11:07:49.187Z,101390.81
2022-09-15T11:10:26.504Z,101398.53
2022-09-15T11:13:05.378Z,101387.59
2022-09-15T11:15:56.729Z,101407.88
2022-09-15T11:18:54.689Z,101389.69
2022-09-15T11:21:31.173Z,101384.19
2022-09-15T11:24:32.972Z,101394.47
2022-09-15T11:27:12.543Z,101392.50
2022-09-15T11:30:02.968Z,101412.44
2022-09-15T11:32:42.662Z,101402.16
2022-09-15T11:35:40.362Z,101411.38
2022-09-15T11:38:29.650Z,101405.16
2022-09-15T11:41:16.546Z,101405.38
2022-09-15T11:44:00.246Z,101400.19
2022-09-15T11:46:46.995Z,101392.81
2022-09-15T11:49:21.917Z,101389.59
2022-09-15T11:51:58.299Z,101405.97
2022-09-15T11:54:38.828Z,101403.19
2022-09-15T11:57:16.257Z,101408.38
2022-09-15T11:59:53.149Z,101401.88
2022-09-15T12:02:40.056Z,101402.88
2022-09-15T12:05:15.168Z,101403.63
2022-09-15T12:07:51.378Z,101408.16
2022-09-15T12:10:27.846Z,101410.06
2022-09-15T12:12:57.702Z,101410.53
2022-09-15T12:15:28.333Z,101402.47
2022-09-15T12:18:37.086Z,101402.81
2022-09-15T12:21:13.109Z,101399.97
2022-09-15T12:23:46.658Z,101409.75
2022-09-15T12:26:21.504Z,101383.00
2022-09-15T12:28:57.808Z,101420.72
2022-09-15T12:31:36.841Z,101411.97
2022-09-15T12:34:25.317Z,101417.44
2022-09-15T12:36:56.691Z,101367.72
2022-09-15T12:39:32.937Z,101397.28
2022-09-15T12:42:21.653Z,101399.03
2022-09-15T12:44:55.908Z,101379.88
2022-09-15T12:47:39.434Z,101402.09
2022-09-15T12:50:29.016Z,101414.19
2022-09-15T12:53:02.337Z,101403.66
2022-09-15T12:55:36.592Z,101409.91
2022-09-15T12:58:16.493Z,101410.91
2022-09-15T13:01:16.649Z,101416.66
2022-09-15T13:04:24.170Z,101410.34
2022-09-15T13:07:37.280Z,101405.75
2022-09-15T13:10:35.871Z,101402.47
2022-09-15T13:13:33.411Z,101402.03
2022-09-15T13:16:03.766Z,101403.88
2022-09-15T13:18:35.146Z,101399.56
2022-09-15T13:21:13.941Z,101403.06
2022-09-15T13:23:48.317Z,101409.03
2022-09-15T13:26:24.403Z,101420.44
2022-09-15T13:28:59.058Z,101403.59
2022-09-15T13:31:40.227Z,101406.56
2022-09-15T13:35:20.731Z,101404.94
2022-09-15T13:38:31.598Z,101406.91
2022-09-15T13:41:40.252Z,101396.47
2022-09-15T13:44:55.794Z,101416.06
2022-09-15T13:47:39.331Z,101406.31
2022-09-15T13:50:18.300Z,101411.00
2022-09-15T13:53:09.021Z,101399.50
2022-09-15T13:55:39.704Z,101407.78
2022-09-15T14:01:08.703Z,101394.91
2022-09-15T14:03:45.575Z,101395.00
2022-09-15T14:06:18.861Z,101392.97
2022-09-15T14:08:53.653Z,101396.63
2022-09-15T14:11:28.725Z,101397.97
2022-09-15T14:14:00.748Z,101396.91
2022-09-15T14:16:37.524Z,101397.63
2022-09-15T14:19:34.108Z,101388.59
2022-09-15T14:22:19.253Z,101385.78
2022-09-15T14:24:48.872Z,101393.72
2022-09-15T14:27:25.658Z,101395.50
2022-09-15T14:29:58.223Z,101403.06
2022-09-15T14:32:31.562Z,101395.84
2022-09-15T14:35:05.585Z,101395.69
2022-09-15T14:37:35.203Z,101395.34
2022-09-15T14:40:23.968Z,101393.03
2022-09-15T14:42:53.269Z,101397.69
2022-09-15T14:48:18.985Z,101403.88
2022-09-15T14:50:59.442Z,101398.41
2022-09-15T14:53:31.551Z,101396.03
2022-09-15T14:56:08.477Z,101395.13
2022-09-15T14:58:43.290Z,101405.22
2022-09-15T15:01:18.152Z,101408.94
2022-09-15T15:03:57.307Z,101403.06
2022-09-15T15:06:32.827Z,101401.34
2022-09-15T15:09:07.655Z,101395.16
2022-09-15T15:11:39.682Z,101411.94
2022-09-15T15:14:12.557Z,101411.38
2022-09-15T15:16:52.858Z,101411.56
2022-09-15T15:19:36.315Z,101399.84
2022-09-15T15:22:17.302Z,101403.66
2022-09-15T15:24:50.100Z,101406.22
2022-09-15T15:27:43.833Z,101407.25
2022-09-15T15:30:47.130Z,101400.53
2022-09-15T15:33:25.593Z,101404.09
2022-09-15T15:36:08.971Z,101405.81
2022-09-15T15:38:47.201Z,101405.63
2022-09-15T15:41:23.221Z,101413.34
2022-09-15T15:44:08.205Z,101407.34
2022-09-15T15:46:53.319Z,101411.28
2022-09-15T15:49:27.501Z,101403.66
2022-09-15T15:51:59.639Z,101411.03
2022-09-15T15:54:29.532Z,101408.53
2022-09-15T15:57:23.323Z,101402.84
2022-09-15T15:59:57.652Z,101402.41
2022-09-15T16:02:28.569Z,101409.31
2022-09-15T16:04:57.743Z,101429.78
2022-09-15T16:07:33.129Z,101428.38
2022-09-15T16:10:03.665Z,101417.94
2022-09-15T16:12:34.810Z,101418.47
2022-09-15T16:15:13.160Z,101428.84
2022-09-15T16:17:46.013Z,101417.66
2022-09-15T16:20:16.991Z,101418.66
2022-09-15T16:22:47.534Z,101431.03
2022-09-15T16:25:19.982Z,101431.06
2022-09-15T16:27:49.124Z,101406.44
2022-09-15T16:30:18.397Z,101424.53
2022-09-15T16:32:47.488Z,101425.69
2022-09-15T16:35:28.209Z,101414.34
2022-09-15T16:37:58.902Z,101419.63
2022-09-15T16:40:28.371Z,101428.41
2022-09-15T16:42:57.573Z,101439.34
2022-09-15T16:45:36.516Z,101407.41
2022-09-15T16:48:09.220Z,101416.69
2022-09-15T16:50:42.657Z,101428.06
2022-09-15T16:53:18.992Z,101423.03
2022-09-15T16:55:49.755Z,101432.75
2022-09-15T16:58:22.248Z,101444.44
2022-09-15T17:00:53.764Z,101431.50
2022-09-15T17:03:25.698Z,101431.94
2022-09-15T17:05:57.522Z,101423.06
2022-09-15T17:08:30.588Z,101405.84
2022-09-15T17:11:01.956Z,101430.03
2022-09-15T17:13:33.590Z,101399.69
2022-09-15T17:16:04.020Z,101410.44
2022-09-15T17:18:33.415Z,101428.25
2022-09-15T17:21:02.558Z,101430.38
2022-09-15T17:23:38.105Z,101425.25
2022-09-15T17:26:12.534Z,101427.56
2022-09-15T17:28:42.320Z,101417.88
2022-09-15T17:31:16.685Z,101432.81
2022-09-15T17:33:46.782Z,101431.00
2022-09-15T17:36:16.219Z,101440.00
2022-09-15T17:38:48.955Z,101438.91
2022-09-15T17:41:20.677Z,101420.34
2022-09-15T17:43:50.004Z,101437.66
2022-09-15T17:46:19.124Z,101430.94
2022-09-15T17:48:48.523Z,101426.59
2022-09-15T17:51:18.498Z,101444.38
2022-09-15T17:53:49.255Z,101432.97
2022-09-15T17:56:18.453Z,101454.44
2022-09-15T17:58:47.611Z,101452.47
2022-09-15T18:01:17.506Z,101443.59
2022-09-15T18:03:47.168Z,101462.41
2022-09-15T18:06:16.326Z,101455.94
2022-09-15T18:08:45.937Z,101462.28
2022-09-15T18:11:16.835Z,101468.06
2022-09-15T18:13:46.096Z,101458.34
2022-09-15T18:16:16.089Z,101465.69
2022-09-15T18:18:45.385Z,101472.00
2022-09-15T18:21:27.009Z,101477.97
2022-09-15T18:23:56.175Z,101467.13
2022-09-15T18:26:27.040Z,101477.56
2022-09-15T18:28:56.400Z,101476.88
2022-09-15T18:31:25.583Z,101479.41
2022-09-15T18:33:54.938Z,101486.56
2022-09-15T18:36:24.098Z,101485.31
2022-09-15T18:38:53.338Z,101490.16
2022-09-15T18:41:22.743Z,101491.03
2022-09-15T18:43:53.288Z,101488.94
2022-09-15T18:46:22.615Z,101487.78
2022-09-15T18:48:51.785Z,101492.66
2022-09-15T18:51:29.088Z,101478.38
2022-09-15T18:54:04.401Z,101495.34
2022-09-15T18:56:33.705Z,101455.63
2022-09-15T18:59:04.355Z,101506.59
2022-09-15T19:01:34.827Z,101479.38
2022-09-15T19:04:04.404Z,101504.59
2022-09-15T19:06:33.666Z,101505.41
2022-09-15T19:09:02.889Z,101505.25
2022-09-15T19:11:32.202Z,101511.81
2022-09-15T19:14:03.232Z,101513.19
2022-09-15T19:16:53.904Z,101513.28
2022-09-15T19:19:22.498Z,101514.88
2022-09-15T19:21:51.754Z,101505.94
2022-09-15T19:24:21.433Z,101492.94
2022-09-15T19:26:50.633Z,101502.66
2022-09-15T19:29:21.244Z,101512.09
2022-09-15T19:31:50.510Z,101516.03
2022-09-15T19:34:19.806Z,101525.31
2022-09-15T19:36:49.020Z,101523.00
2022-09-15T19:39:18.335Z,101531.78
2022-09-15T19:41:47.560Z,101521.28
2022-09-15T19:44:17.258Z,101481.47
2022-09-15T19:46:48.479Z,101535.56
2022-09-15T19:49:17.799Z,101524.91
2022-09-15T19:51:47.180Z,101537.84
2022-09-15T19:54:16.375Z,101542.84
2022-09-15T19:56:45.576Z,101531.69
2022-09-15T19:59:14.824Z,101537.56
2022-09-15T20:01:44.467Z,101551.31
2022-09-15T20:04:15.867Z,101549.72
2022-09-15T20:06:45.154Z,101550.50
2022-09-15T20:09:14.376Z,101548.28
2022-09-15T20:11:43.694Z,101540.66
2022-09-15T20:14:12.907Z,101558.34
2022-09-15T20:16:42.599Z,101556.56
2022-09-15T20:19:11.890Z,101553.00
2022-09-15T20:21:51.343Z,101558.34
2022-09-15T20:24:21.963Z,101553.00
2022-09-15T20:26:51.579Z,101519.78
2022-09-15T20:29:21.604Z,101521.09
2022-09-15T20:31:50.771Z,101544.28
2022-09-15T20:34:20.138Z,101562.94
2022-09-15T20:36:50.988Z,101558.91
2022-09-15T20:39:22.473Z,101560.88
2022-09-15T20:41:51.878Z,101567.19
2022-09-15T20:44:20.995Z,101555.84
2022-09-15T20:46:50.221Z,101570.13
2022-09-15T20:49:19.800Z,101570.13
2022-09-15T20:51:51.745Z,101578.47
2022-09-15T20:54:21.068Z,101582.84
2022-09-15T20:56:50.252Z,101588.03
2022-09-15T20:59:19.587Z,101586.63
2022-09-15T21:01:49.140Z,101581.28
2022-09-15T21:04:19.120Z,101574.78
2022-09-15T21:06:50.046Z,101596.06
2022-09-15T21:09:19.288Z,101582.94
2022-09-15T21:11:53.277Z,101587.50
2022-09-15T21:14:22.948Z,101600.47
2022-09-15T21:16:52.208Z,101558.50
2022-09-15T21:19:21.450Z,101598.38
2022-09-15T21:21:52.055Z,101598.06
2022-09-15T21:24:24.552Z,101607.47
2022-09-15T21:27:11.291Z,101593.38
2022-09-15T21:29:41.015Z,101616.56
2022-09-15T21:32:10.233Z,101605.22
2022-09-15T21:34:39.570Z,101622.56
2022-09-15T21:37:10.444Z,101616.75
2022-09-15T21:39:39.704Z,101623.72
2022-09-15T21:42:10.286Z,101624.53
2022-09-15T21:44:39.457Z,101621.31
2022-09-15T21:47:09.048Z,101621.16
2022-09-15T21:49:38.313Z,101623.41
2022-09-15T21:52:11.452Z,101618.88
2022-09-15T21:54:40.739Z,101624.09
2022-09-15T21:57:10.397Z,101623.13
2022-09-15T21:59:39.773Z,101630.41
2022-09-15T22:02:11.744Z,101628.16
2022-09-15T22:04:41.045Z,101628.47
2022-09-15T22:07:11.764Z,101633.53
2022-09-15T22:09:41.043Z,101610.66
2022-09-15T22:12:10.710Z,101614.53
2022-09-15T22:14:39.936Z,101628.16
2022-09-15T22:17:09.203Z,101631.09
2022-09-15T22:19:38.379Z,101636.31
2022-09-15T22:22:08.269Z,101635.50
2022-09-15T22:24:39.182Z,101627.00
2022-09-15T22:27:08.412Z,101622.16
2022-09-15T22:29:37.565Z,101622.97
2022-09-15T22:32:09.536Z,101615.63
2022-09-15T22:34:38.949Z,101626.53
2022-09-15T22:37:08.214Z,101625.38
2022-09-15T22:39:58.144Z,101632.06
2022-09-15T22:42:28.574Z,101589.06
2022-09-15T22:45:01.037Z,101610.13
2022-09-15T22:47:30.223Z,101647.31
2022-09-15T22:49:59.885Z,101634.97
2022-09-15T22:52:29.089Z,101639.84
2022-09-15T22:55:04.672Z,101634.63
2022-09-15T22:57:37.333Z,101642.91
2022-09-15T23:00:08.664Z,101642.75
2022-09-15T23:02:40.561Z,101645.84
2022-09-15T23:05:10.718Z,101636.13
2022-09-15T23:07:40.003Z,101643.91
2022-09-15T23:10:15.777Z,101645.03
2022-09-15T23:12:45.399Z,101646.19
2022-09-15T23:15:15.089Z,101643.72
2022-09-15T23:17:44.354Z,101651.53
2022-09-15T23:20:19.945Z,101648.09
2022-09-15T23:22:49.078Z,101652.34
2022-09-15T23:25:19.767Z,101654.47
2022-09-15T23:27:48.910Z,101659.31
2022-09-15T23:30:18.836Z,101655.41
2022-09-15T23:32:48.027Z,101657.19
2022-09-15T23:35:17.254Z,101660.25
2022-09-15T23:37:46.419Z,101663.00
2022-09-15T23:40:15.904Z,101668.19
2022-09-15T23:42:46.579Z,101666.91
2022-09-15T23:45:15.919Z,101669.66
2022-09-15T23:47:45.116Z,101673.53
2022-09-15T23:50:14.254Z,101670.25
2022-09-15T23:52:43.361Z,101659.25
2022-09-15T23:55:12.812Z,101667.38
2022-09-15T23:57:42.073Z,101672.41
